Share

Oulan-Bator, Mongolie

03:34 ULAT le 24 avril 2014 (GMT +0800)
Buyant-Ukhaa (ZMUB) Alt. 4364 ft | 47.83 °N, 106.78 °E | Change Station

Current weather conditions updated 34 minutes ago

Scattered Clouds
Nuages épars
43 ° F
Paraît 40 ° F
N
4
Vent Variable Vent de Variable
Lever du soleil 5:48 AM
Coucher du soleil 7:55 PM
Lune Lune descendante

Aujourd’hui il est prévu de faire bien plus froid qu’hier. Légères chutes de neige dans l'après-midi..

Pression 29.47 pouce
Visibilité 6.2 Miles terrestres
Nuages Nuages épars 10000 ft
Refroidissement éolien 40 ° F
Point de rosée 18 ° F
Humidité 36%
Précipitations 0.00 pouce
Profondeur de la couche neigeuse Non disponible.
UV 0 sur 16
Pollen Non disponible.
Qualité de l'air Non disponible.
Flu Activity Non disponible.
METAR ZMUB 231900Z VRB02MPS 9999 SCT100 06/M08 Q0998 NOSIG RMK QFE643.4 37 NT

More Conditions Fewer Conditions

Pression 29.47 pouce
Visibilité 6.2 Miles terrestres
Nuages Nuages épars 10000 ft
Refroidissement éolien 40 ° F
Point de rosée 18 ° F
Humidité 36%
Précipitations 0.00 pouce
Profondeur de la couche neigeuse Non disponible.
UV 0 sur 16
Pollen Non disponible.
Qualité de l'air Non disponible.
Flu Activity Non disponible.
METAR ZMUB 231900Z VRB02MPS 9999 SCT100 06/M08 Q0998 NOSIG RMK QFE643.4 37 NT

More Conditions Fewer Conditions

10-Day Weather Forecast

Almanac

Astronomie

Apr. 24, 2014 Lever Coucher
Temps réel 05:48 ULAT 19:55 ULAT
Crépuscule civil 05:14 ULAT 20:28 ULAT
Crépuscule nautique 04:33 ULAT 21:10 ULAT
Crépuscule astronomique 03:46 ULAT 21:57 ULAT
Lune 03:03 ULAT (4/24) 14:10 ULAT (4/24)
Durée de lumière visible 15h 14m
Longueur du jour
14h 06m
Tomorrow will be 3m 12s longer.
Lune descendante, 33% of the Moon is Illuminated
avr 23
Lune descendante
avr 29
Nouveau
mai 6
Premier quartier
mai 14
Pleine lune
mai 21
Dernier quartier

Les extrêmes de température d’hier

Country Highs Country Lows

Community

  • Stunning Sunrise
    Stunning Sunrise
  • spring flowers
    spring flowers
  • Earth Day Spectrum Ove' Blue
    Earth Day Spectrum Ove' Blue
  • BARN B&W
    BARN B&W
  • April Sunset
    April Sunset

WunderPhotos

Upload Photos

1,704,389 Photos téléchargées !

WunderBlogs® & News

Nearby

Qualité de l'air

Not available.

Épaisseur de neige

Not available.

Températures des eaux côtières

Lieu Température
Aucun rapport de station

Activité sismique

Ville Distance Mag. Time & Date
No recent earthquake activity has been reported nearby.
Minimum magnitude displayed is 2.5.

Stations météo à proximité

Il n'y a aucune station météorologique personnelle dans cette zone.

What do you think?

We're not finished. Please let us know what you like, what you don't like, and what you are still missing.